sensor_id;sensor_type;location;lat;lon;timestamp;pressure;altitude;pressure_sealevel;temperature;humidity
29467;BME280;60968;37.490;-122.288;2023-01-28T00:00:58;99067.38;;;13.99;76.75
29467;BME280;60968;37.490;-122.288;2023-01-28T00:04:04;99066.41;;;13.70;77.76
29467;BME280;60968;37.490;-122.288;2023-01-28T00:07:05;99066.53;;;13.30;77.54
29467;BME280;60968;37.490;-122.288;2023-01-28T00:10:11;99070.47;;;13.10;76.05
29467;BME280;60968;37.490;-122.288;2023-01-28T00:13:12;99070.16;;;12.86;77.04
29467;BME280;60968;37.490;-122.288;2023-01-28T00:16:13;99075.00;;;12.63;79.18
29467;BME280;60968;37.490;-122.288;2023-01-28T00:19:14;99060.53;;;12.48;74.48
29467;BME280;60968;37.490;-122.288;2023-01-28T00:22:15;99051.03;;;12.44;69.57
29467;BME280;60968;37.490;-122.288;2023-01-28T00:25:16;99045.84;;;12.42;69.54
29467;BME280;60968;37.490;-122.288;2023-01-28T00:28:17;99029.63;;;12.28;67.59
29467;BME280;60968;37.490;-122.288;2023-01-28T00:31:20;99022.00;;;12.17;64.69
29467;BME280;60968;37.490;-122.288;2023-01-28T00:34:22;99032.53;;;12.11;62.77
29467;BME280;60968;37.490;-122.288;2023-01-28T00:37:22;99012.63;;;12.05;61.65
29467;BME280;60968;37.490;-122.288;2023-01-28T00:40:23;99004.94;;;11.99;60.06
29467;BME280;60968;37.490;-122.288;2023-01-28T00:43:24;99004.06;;;12.00;57.29
29467;BME280;60968;37.490;-122.288;2023-01-28T00:46:25;99004.09;;;11.98;57.32
29467;BME280;60968;37.490;-122.288;2023-01-28T00:49:26;98995.47;;;11.92;56.10
29467;BME280;60968;37.490;-122.288;2023-01-28T00:52:27;98986.03;;;11.84;56.21
29467;BME280;60968;37.490;-122.288;2023-01-28T00:55:28;98980.19;;;11.73;56.91
29467;BME280;60968;37.490;-122.288;2023-01-28T00:58:29;98970.78;;;11.64;56.25
29467;BME280;60968;37.490;-122.288;2023-01-28T01:01:30;98959.66;;;11.55;53.92
29467;BME280;60968;37.490;-122.288;2023-01-28T01:04:31;98979.59;;;11.57;54.57
29467;BME280;60968;37.490;-122.288;2023-01-28T01:07:32;98968.34;;;11.55;51.74
29467;BME280;60968;37.490;-122.288;2023-01-28T01:10:32;98968.31;;;11.57;49.84
29467;BME280;60968;37.490;-122.288;2023-01-28T01:13:34;98972.72;;;11.52;50.78
29467;BME280;60968;37.490;-122.288;2023-01-28T01:16:35;98974.81;;;11.34;53.72
29467;BME280;60968;37.490;-122.288;2023-01-28T01:19:36;98985.41;;;11.23;54.53
29467;BME280;60968;37.490;-122.288;2023-01-28T01:22:37;98985.66;;;11.09;55.68
29467;BME280;60968;37.490;-122.288;2023-01-28T01:25:39;98984.16;;;10.96;58.05
29467;BME280;60968;37.490;-122.288;2023-01-28T01:28:40;98980.03;;;10.79;58.63
29467;BME280;60968;37.490;-122.288;2023-01-28T01:31:41;98974.19;;;10.65;60.07
29467;BME280;60968;37.490;-122.288;2023-01-28T01:34:42;98970.00;;;10.53;60.26
29467;BME280;60968;37.490;-122.288;2023-01-28T01:37:43;98954.38;;;10.53;62.86
29467;BME280;60968;37.490;-122.288;2023-01-28T01:40:44;98944.16;;;10.41;66.15
29467;BME280;60968;37.490;-122.288;2023-01-28T01:43:50;98932.47;;;10.06;70.38
29467;BME280;60968;37.490;-122.288;2023-01-28T01:46:51;98928.47;;;9.77;72.04
29467;BME280;60968;37.490;-122.288;2023-01-28T01:49:53;98931.31;;;9.57;72.71
29467;BME280;60968;37.490;-122.288;2023-01-28T01:52:58;98945.28;;;9.50;72.95
29467;BME280;60968;37.490;-122.288;2023-01-28T01:56:04;98952.22;;;9.48;74.62
29467;BME280;60968;37.490;-122.288;2023-01-28T01:59:13;98935.81;;;9.39;76.10
29467;BME280;60968;37.490;-122.288;2023-01-28T02:02:15;98940.22;;;9.34;77.28
29467;BME280;60968;37.490;-122.288;2023-01-28T02:05:19;98943.00;;;9.19;80.71
29467;BME280;60968;37.490;-122.288;2023-01-28T02:08:20;98930.94;;;9.08;82.61
29467;BME280;60968;37.490;-122.288;2023-01-28T02:11:27;98934.53;;;8.93;84.59
29467;BME280;60968;37.490;-122.288;2023-01-28T02:14:32;98945.88;;;8.82;87.35
29467;BME280;60968;37.490;-122.288;2023-01-28T02:17:35;98933.81;;;8.78;88.01
29467;BME280;60968;37.490;-122.288;2023-01-28T02:27:13;98914.97;;;8.49;94.34
29467;BME280;60968;37.490;-122.288;2023-01-28T02:30:25;98912.38;;;8.52;94.91
29467;BME280;60968;37.490;-122.288;2023-01-28T02:40:14;98911.53;;;8.39;99.67
29467;BME280;60968;37.490;-122.288;2023-01-28T02:43:16;98917.63;;;8.40;100.00
29467;BME280;60968;37.490;-122.288;2023-01-28T02:49:46;98926.22;;;8.51;100.00
29467;BME280;60968;37.490;-122.288;2023-01-28T02:56:06;98915.03;;;8.40;100.00
29467;BME280;60968;37.490;-122.288;2023-01-28T03:05:34;98908.97;;;8.36;100.00
29467;BME280;60968;37.490;-122.288;2023-01-28T03:08:51;98900.38;;;8.31;100.00
29467;BME280;60968;37.490;-122.288;2023-01-28T03:21:31;98912.41;;;8.43;100.00
29467;BME280;60968;37.490;-122.288;2023-01-28T03:24:43;98901.16;;;8.46;100.00
29467;BME280;60968;37.490;-122.288;2023-01-28T03:27:51;98909.78;;;8.48;100.00
29467;BME280;60968;37.490;-122.288;2023-01-28T03:34:04;98930.56;;;8.46;100.00
29467;BME280;60968;37.490;-122.288;2023-01-28T03:37:08;98944.44;;;8.47;100.00
29467;BME280;60968;37.490;-122.288;2023-01-28T03:40:10;98963.47;;;8.49;100.00
29467;BME280;60968;37.490;-122.288;2023-01-28T03:43:12;98966.06;;;8.46;100.00
29467;BME280;60968;37.490;-122.288;2023-01-28T03:46:12;98975.56;;;8.44;100.00
29467;BME280;60968;37.490;-122.288;2023-01-28T03:49:15;98977.34;;;8.40;100.00
29467;BME280;60968;37.490;-122.288;2023-01-28T03:52:19;98963.53;;;8.32;100.00
29467;BME280;60968;37.490;-122.288;2023-01-28T03:55:20;98967.91;;;8.23;100.00
29467;BME280;60968;37.490;-122.288;2023-01-28T03:58:22;98974.84;;;8.20;100.00
29467;BME280;60968;37.490;-122.288;2023-01-28T04:01:23;98973.13;;;8.13;100.00
29467;BME280;60968;37.490;-122.288;2023-01-28T04:04:24;98964.53;;;8.09;100.00
29467;BME280;60968;37.490;-122.288;2023-01-28T04:07:25;98958.47;;;8.07;100.00
29467;BME280;60968;37.490;-122.288;2023-01-28T04:10:26;98954.16;;;8.03;100.00
29467;BME280;60968;37.490;-122.288;2023-01-28T04:13:26;98960.22;;;8.03;100.00
29467;BME280;60968;37.490;-122.288;2023-01-28T04:16:28;98957.63;;;8.03;100.00
29467;BME280;60968;37.490;-122.288;2023-01-28T04:19:29;98957.59;;;8.08;100.00
29467;BME280;60968;37.490;-122.288;2023-01-28T04:22:30;98963.66;;;8.10;100.00
29467;BME280;60968;37.490;-122.288;2023-01-28T04:25:33;98955.84;;;8.13;100.00
29467;BME280;60968;37.490;-122.288;2023-01-28T04:28:34;98949.78;;;8.16;100.00
29467;BME280;60968;37.490;-122.288;2023-01-28T04:31:35;98949.78;;;8.11;100.00
29467;BME280;60968;37.490;-122.288;2023-01-28T04:34:36;98947.16;;;8.14;100.00
29467;BME280;60968;37.490;-122.288;2023-01-28T04:37:39;98945.44;;;8.18;100.00
29467;BME280;60968;37.490;-122.288;2023-01-28T04:40:40;98947.19;;;8.16;100.00
29467;BME280;60968;37.490;-122.288;2023-01-28T04:43:41;98942.84;;;8.16;100.00
29467;BME280;60968;37.490;-122.288;2023-01-28T04:46:43;98948.91;;;8.17;100.00
29467;BME280;60968;37.490;-122.288;2023-01-28T04:49:43;98955.78;;;8.22;100.00
29467;BME280;60968;37.490;-122.288;2023-01-28T04:52:44;98939.38;;;8.20;100.00
29467;BME280;60968;37.490;-122.288;2023-01-28T04:55:45;98934.19;;;8.19;100.00
29467;BME280;60968;37.490;-122.288;2023-01-28T04:58:46;98942.00;;;8.17;100.00
29467;BME280;60968;37.490;-122.288;2023-01-28T05:01:48;98940.25;;;8.16;100.00
29467;BME280;60968;37.490;-122.288;2023-01-28T05:04:49;98938.50;;;8.17;100.00
29467;BME280;60968;37.490;-122.288;2023-01-28T05:07:52;98936.78;;;8.17;100.00
29467;BME280;60968;37.490;-122.288;2023-01-28T05:10:53;98940.25;;;8.18;100.00
29467;BME280;60968;37.490;-122.288;2023-01-28T05:13:54;98934.19;;;8.17;100.00
29467;BME280;60968;37.490;-122.288;2023-01-28T05:16:55;98925.53;;;8.17;100.00
29467;BME280;60968;37.490;-122.288;2023-01-28T05:19:56;98923.81;;;8.14;100.00
29467;BME280;60968;37.490;-122.288;2023-01-28T05:22:56;98926.41;;;8.13;100.00
29467;BME280;60968;37.490;-122.288;2023-01-28T05:25:57;98926.44;;;8.16;100.00
29467;BME280;60968;37.490;-122.288;2023-01-28T05:28:58;98919.50;;;8.13;100.00
29467;BME280;60968;37.490;-122.288;2023-01-28T05:31:59;98909.97;;;8.14;100.00
29467;BME280;60968;37.490;-122.288;2023-01-28T05:35:01;98899.63;;;8.12;100.00
29467;BME280;60968;37.490;-122.288;2023-01-28T05:38:02;98897.00;;;8.14;100.00
29467;BME280;60968;37.490;-122.288;2023-01-28T05:41:03;98897.00;;;8.14;100.00
29467;BME280;60968;37.490;-122.288;2023-01-28T05:44:04;98897.84;;;8.14;100.00
29467;BME280;60968;37.490;-122.288;2023-01-28T05:47:05;98896.16;;;8.15;100.00
29467;BME280;60968;37.490;-122.288;2023-01-28T05:50:07;98895.28;;;8.13;100.00
29467;BME280;60968;37.490;-122.288;2023-01-28T05:53:08;98900.47;;;8.16;100.00
29467;BME280;60968;37.490;-122.288;2023-01-28T05:56:09;98890.06;;;8.14;100.00
29467;BME280;60968;37.490;-122.288;2023-01-28T05:59:11;98887.47;;;8.14;100.00
29467;BME280;60968;37.490;-122.288;2023-01-28T06:02:11;98898.78;;;8.12;100.00
29467;BME280;60968;37.490;-122.288;2023-01-28T06:05:12;98901.34;;;8.13;100.00
29467;BME280;60968;37.490;-122.288;2023-01-28T06:08:13;98902.22;;;8.11;100.00
29467;BME280;60968;37.490;-122.288;2023-01-28T06:11:16;98903.94;;;8.15;100.00
29467;BME280;60968;37.490;-122.288;2023-01-28T06:14:18;98903.91;;;8.16;100.00
29467;BME280;60968;37.490;-122.288;2023-01-28T06:17:18;98906.53;;;8.15;100.00
29467;BME280;60968;37.490;-122.288;2023-01-28T06:20:19;98898.75;;;8.15;100.00
29467;BME280;60968;37.490;-122.288;2023-01-28T06:23:20;98900.47;;;8.11;100.00
29467;BME280;60968;37.490;-122.288;2023-01-28T06:26:21;98908.25;;;8.14;100.00
29467;BME280;60968;37.490;-122.288;2023-01-28T06:29:23;98907.38;;;8.17;100.00
29467;BME280;60968;37.490;-122.288;2023-01-28T06:32:24;98903.94;;;8.08;100.00
29467;BME280;60968;37.490;-122.288;2023-01-28T06:35:25;98905.72;;;8.06;100.00
29467;BME280;60968;37.490;-122.288;2023-01-28T06:38:26;98903.97;;;8.04;100.00
29467;BME280;60968;37.490;-122.288;2023-01-28T06:41:27;98898.81;;;8.02;100.00
29467;BME280;60968;37.490;-122.288;2023-01-28T06:44:27;98910.06;;;8.00;100.00
29467;BME280;60968;37.490;-122.288;2023-01-28T06:47:28;98901.41;;;8.01;100.00
29467;BME280;60968;37.490;-122.288;2023-01-28T06:50:29;98905.75;;;7.96;100.00
29467;BME280;60968;37.490;-122.288;2023-01-28T06:53:30;98908.34;;;7.97;100.00
29467;BME280;60968;37.490;-122.288;2023-01-28T06:56:31;98904.09;;;7.84;100.00
29467;BME280;60968;37.490;-122.288;2023-01-28T06:59:32;98911.06;;;7.72;100.00
29467;BME280;60968;37.490;-122.288;2023-01-28T07:02:33;98919.72;;;7.71;100.00
29467;BME280;60968;37.490;-122.288;2023-01-28T07:05:34;98909.38;;;7.67;100.00
29467;BME280;60968;37.490;-122.288;2023-01-28T07:08:37;98910.22;;;7.64;100.00
29467;BME280;60968;37.490;-122.288;2023-01-28T07:11:38;98913.69;;;7.62;100.00
29467;BME280;60968;37.490;-122.288;2023-01-28T07:14:39;98911.97;;;7.58;100.00
29467;BME280;60968;37.490;-122.288;2023-01-28T07:17:41;98910.28;;;7.50;100.00
29467;BME280;60968;37.490;-122.288;2023-01-28T07:20:42;98910.28;;;7.52;100.00
29467;BME280;60968;37.490;-122.288;2023-01-28T07:23:43;98905.97;;;7.52;100.00
29467;BME280;60968;37.490;-122.288;2023-01-28T07:26:46;98909.41;;;7.53;100.00
29467;BME280;60968;37.490;-122.288;2023-01-28T07:29:47;98905.97;;;7.54;100.00
29467;BME280;60968;37.490;-122.288;2023-01-28T07:32:58;98905.09;;;7.52;100.00
29467;BME280;60968;37.490;-122.288;2023-01-28T07:35:59;98908.53;;;7.57;100.00
29467;BME280;60968;37.490;-122.288;2023-01-28T07:39:03;98893.81;;;7.59;100.00
29467;BME280;60968;37.490;-122.288;2023-01-28T07:42:04;98901.59;;;7.61;100.00
29467;BME280;60968;37.490;-122.288;2023-01-28T07:45:05;98902.50;;;7.58;100.00
29467;BME280;60968;37.490;-122.288;2023-01-28T07:48:08;98899.00;;;7.59;100.00
29467;BME280;60968;37.490;-122.288;2023-01-28T07:51:10;98895.56;;;7.57;100.00
29467;BME280;60968;37.490;-122.288;2023-01-28T07:54:11;98892.13;;;7.58;100.00
29467;BME280;60968;37.490;-122.288;2023-01-28T07:57:12;98893.00;;;7.55;100.00
29467;BME280;60968;37.490;-122.288;2023-01-28T08:00:13;98898.16;;;7.57;100.00
29467;BME280;60968;37.490;-122.288;2023-01-28T08:03:15;98899.88;;;7.56;100.00
29467;BME280;60968;37.490;-122.288;2023-01-28T08:06:15;98906.81;;;7.54;100.00
29467;BME280;60968;37.490;-122.288;2023-01-28T08:09:17;98900.75;;;7.59;100.00
29467;BME280;60968;37.490;-122.288;2023-01-28T08:12:18;98905.94;;;7.57;100.00
29467;BME280;60968;37.490;-122.288;2023-01-28T08:15:19;98909.38;;;7.56;100.00
29467;BME280;60968;37.490;-122.288;2023-01-28T08:18:22;98899.88;;;7.56;100.00
29467;BME280;60968;37.490;-122.288;2023-01-28T08:21:23;98905.94;;;7.51;100.00
29467;BME280;60968;37.490;-122.288;2023-01-28T08:24:24;98906.81;;;7.54;100.00
29467;BME280;60968;37.490;-122.288;2023-01-28T08:27:24;98903.34;;;7.49;100.00
29467;BME280;60968;37.490;-122.288;2023-01-28T08:30:26;98895.59;;;7.46;100.00
29467;BME280;60968;37.490;-122.288;2023-01-28T08:33:27;98899.06;;;7.50;100.00
29467;BME280;60968;37.490;-122.288;2023-01-28T08:36:28;98901.66;;;7.48;100.00
29467;BME280;60968;37.490;-122.288;2023-01-28T08:39:33;98905.09;;;7.47;100.00
29467;BME280;60968;37.490;-122.288;2023-01-28T08:42:34;98893.88;;;7.47;100.00
29467;BME280;60968;37.490;-122.288;2023-01-28T08:45:35;98887.81;;;7.46;100.00
29467;BME280;60968;37.490;-122.288;2023-01-28T08:48:36;98881.78;;;7.46;100.00
29467;BME280;60968;37.490;-122.288;2023-01-28T08:51:37;98885.28;;;7.38;100.00
29467;BME280;60968;37.490;-122.288;2023-01-28T08:54:38;98878.34;;;7.36;100.00
29467;BME280;60968;37.490;-122.288;2023-01-28T08:57:39;98877.50;;;7.29;100.00
29467;BME280;60968;37.490;-122.288;2023-01-28T09:00:40;98876.66;;;7.24;100.00
29467;BME280;60968;37.490;-122.288;2023-01-28T09:03:42;98878.41;;;7.22;100.00
29467;BME280;60968;37.490;-122.288;2023-01-28T09:06:43;98876.66;;;7.27;100.00
29467;BME280;60968;37.490;-122.288;2023-01-28T09:09:44;98884.44;;;7.24;100.00
29467;BME280;60968;37.490;-122.288;2023-01-28T09:12:45;98882.72;;;7.25;100.00
29467;BME280;60968;37.490;-122.288;2023-01-28T09:15:47;98891.34;;;7.22;100.00
29467;BME280;60968;37.490;-122.288;2023-01-28T09:18:48;98881.88;;;7.18;100.00
29467;BME280;60968;37.490;-122.288;2023-01-28T09:21:49;98882.75;;;7.06;100.00
29467;BME280;60968;37.490;-122.288;2023-01-28T09:24:50;98884.47;;;7.09;100.00
29467;BME280;60968;37.490;-122.288;2023-01-28T09:27:51;98878.44;;;7.08;100.00
29467;BME280;60968;37.490;-122.288;2023-01-28T09:30:52;98871.53;;;7.02;100.00
29467;BME280;60968;37.490;-122.288;2023-01-28T09:33:52;98875.00;;;6.94;100.00
29467;BME280;60968;37.490;-122.288;2023-01-28T09:36:53;98872.41;;;6.86;100.00
29467;BME280;60968;37.490;-122.288;2023-01-28T09:39:54;98881.06;;;6.82;100.00
29467;BME280;60968;37.490;-122.288;2023-01-28T09:43:07;98878.47;;;6.83;100.00
29467;BME280;60968;37.490;-122.288;2023-01-28T09:46:13;98879.34;;;6.79;100.00
29467;BME280;60968;37.490;-122.288;2023-01-28T09:49:36;98884.53;;;6.79;100.00
29467;BME280;60968;37.490;-122.288;2023-01-28T09:52:39;98889.69;;;6.78;100.00
29467;BME280;60968;37.490;-122.288;2023-01-28T09:55:45;98890.56;;;6.81;100.00
29467;BME280;60968;37.490;-122.288;2023-01-28T09:58:46;98896.59;;;6.77;100.00
29467;BME280;60968;37.490;-122.288;2023-01-28T10:18:40;98880.22;;;6.67;100.00
29467;BME280;60968;37.490;-122.288;2023-01-28T10:21:58;98873.31;;;6.63;100.00
29467;BME280;60968;37.490;-122.288;2023-01-28T10:25:06;98867.25;;;6.66;100.00
29467;BME280;60968;37.490;-122.288;2023-01-28T10:28:20;98867.25;;;6.70;100.00
29467;BME280;60968;37.490;-122.288;2023-01-28T10:31:34;98871.56;;;6.75;100.00
29467;BME280;60968;37.490;-122.288;2023-01-28T10:34:37;98872.44;;;6.70;100.00
29467;BME280;60968;37.490;-122.288;2023-01-28T10:37:39;98872.44;;;6.64;100.00
29467;BME280;60968;37.490;-122.288;2023-01-28T10:40:40;98873.28;;;6.66;100.00
29467;BME280;60968;37.490;-122.288;2023-01-28T10:43:42;98875.03;;;6.64;100.00
29467;BME280;60968;37.490;-122.288;2023-01-28T10:46:44;98870.72;;;6.62;100.00
29467;BME280;60968;37.490;-122.288;2023-01-28T10:49:52;98872.44;;;6.64;100.00
29467;BME280;60968;37.490;-122.288;2023-01-28T10:53:05;98873.28;;;6.66;100.00
29467;BME280;60968;37.490;-122.288;2023-01-28T10:56:32;98876.78;;;6.65;100.00
29467;BME280;60968;37.490;-122.288;2023-01-28T10:59:34;98876.75;;;6.59;100.00
29467;BME280;60968;37.490;-122.288;2023-01-28T11:02:36;98873.31;;;6.54;100.00
29467;BME280;60968;37.490;-122.288;2023-01-28T11:05:36;98881.94;;;6.50;100.00
29467;BME280;60968;37.490;-122.288;2023-01-28T11:08:43;98885.41;;;6.43;100.00
29467;BME280;60968;37.490;-122.288;2023-01-28T11:11:44;98877.63;;;6.32;100.00
29467;BME280;60968;37.490;-122.288;2023-01-28T11:14:56;98886.25;;;6.22;100.00
29467;BME280;60968;37.490;-122.288;2023-01-28T11:18:00;98878.47;;;6.15;100.00
29467;BME280;60968;37.490;-122.288;2023-01-28T11:21:04;98876.75;;;6.22;100.00
29467;BME280;60968;37.490;-122.288;2023-01-28T11:24:20;98875.00;;;6.23;100.00
29467;BME280;60968;37.490;-122.288;2023-01-28T11:27:27;98881.03;;;6.20;100.00
29467;BME280;60968;37.490;-122.288;2023-01-28T11:30:32;98880.19;;;6.21;100.00
29467;BME280;60968;37.490;-122.288;2023-01-28T11:33:45;98881.94;;;6.19;100.00
29467;BME280;60968;37.490;-122.288;2023-01-28T11:37:11;98871.56;;;6.21;100.00
29467;BME280;60968;37.490;-122.288;2023-01-28T11:40:18;98873.31;;;6.26;100.00
29467;BME280;60968;37.490;-122.288;2023-01-28T11:43:26;98863.81;;;6.27;100.00
29467;BME280;60968;37.490;-122.288;2023-01-28T11:53:41;98874.16;;;6.25;100.00
29467;BME280;60968;37.490;-122.288;2023-01-28T12:04:05;98876.75;;;6.25;100.00
29467;BME280;60968;37.490;-122.288;2023-01-28T12:16:48;98888.81;;;6.31;100.00
29467;BME280;60968;37.490;-122.288;2023-01-28T12:20:24;98883.66;;;6.32;100.00
29467;BME280;60968;37.490;-122.288;2023-01-28T12:26:52;98875.03;;;6.30;100.00
29467;BME280;60968;37.490;-122.288;2023-01-28T12:40:46;98891.41;;;6.26;100.00
29467;BME280;60968;37.490;-122.288;2023-01-28T12:43:59;98887.94;;;6.20;100.00
29467;BME280;60968;37.490;-122.288;2023-01-28T12:47:08;98885.38;;;6.15;100.00
29467;BME280;60968;37.490;-122.288;2023-01-28T12:50:21;98875.88;;;6.17;100.00
29467;BME280;60968;37.490;-122.288;2023-01-28T12:56:40;98875.03;;;6.15;100.00
29467;BME280;60968;37.490;-122.288;2023-01-28T12:59:49;98874.13;;;6.13;100.00
29467;BME280;60968;37.490;-122.288;2023-01-28T13:06:26;98883.63;;;6.15;100.00
29467;BME280;60968;37.490;-122.288;2023-01-28T13:09:33;98879.31;;;6.14;100.00
29467;BME280;60968;37.490;-122.288;2023-01-28T13:12:37;98872.44;;;6.12;100.00
29467;BME280;60968;37.490;-122.288;2023-01-28T13:15:41;98874.13;;;6.07;100.00
29467;BME280;60968;37.490;-122.288;2023-01-28T13:18:45;98879.31;;;6.10;100.00
29467;BME280;60968;37.490;-122.288;2023-01-28T13:21:46;98874.13;;;6.11;100.00
29467;BME280;60968;37.490;-122.288;2023-01-28T13:24:48;98875.03;;;6.12;100.00
29467;BME280;60968;37.490;-122.288;2023-01-28T13:28:04;98860.31;;;6.05;100.00
29467;BME280;60968;37.490;-122.288;2023-01-28T13:31:08;98865.50;;;6.00;100.00
29467;BME280;60968;37.490;-122.288;2023-01-28T13:34:30;98871.47;;;5.96;100.00
29467;BME280;60968;37.490;-122.288;2023-01-28T13:37:36;98867.16;;;5.86;100.00
29467;BME280;60968;37.490;-122.288;2023-01-28T13:40:40;98867.13;;;5.78;100.00
29467;BME280;60968;37.490;-122.288;2023-01-28T13:43:41;98867.13;;;5.75;100.00
29467;BME280;60968;37.490;-122.288;2023-01-28T13:46:42;98877.47;;;5.75;100.00
29467;BME280;60968;37.490;-122.288;2023-01-28T13:50:06;98875.75;;;5.77;100.00
29467;BME280;60968;37.490;-122.288;2023-01-28T13:53:26;98881.78;;;5.79;100.00
29467;BME280;60968;37.490;-122.288;2023-01-28T13:56:38;98878.31;;;5.71;100.00
29467;BME280;60968;37.490;-122.288;2023-01-28T14:00:08;98873.13;;;5.67;100.00
29467;BME280;60968;37.490;-122.288;2023-01-28T14:10:02;98857.59;;;5.58;100.00
29467;BME280;60968;37.490;-122.288;2023-01-28T14:19:50;98844.59;;;5.40;100.00
29467;BME280;60968;37.490;-122.288;2023-01-28T14:23:04;98831.72;;;5.44;100.00
29467;BME280;60968;37.490;-122.288;2023-01-28T14:32:30;98841.28;;;5.78;100.00
29467;BME280;60968;37.490;-122.288;2023-01-28T14:35:33;98840.44;;;5.85;100.00
29467;BME280;60968;37.490;-122.288;2023-01-28T14:38:42;98844.75;;;5.89;100.00
29467;BME280;60968;37.490;-122.288;2023-01-28T14:41:45;98841.31;;;5.90;100.00
29467;BME280;60968;37.490;-122.288;2023-01-28T14:45:07;98849.94;;;5.97;100.00
29467;BME280;60968;37.490;-122.288;2023-01-28T14:57:57;98840.44;;;5.94;100.00
29467;BME280;60968;37.490;-122.288;2023-01-28T15:00:59;98837.00;;;5.94;100.00
29467;BME280;60968;37.490;-122.288;2023-01-28T15:04:00;98843.88;;;5.92;100.00
29467;BME280;60968;37.490;-122.288;2023-01-28T15:07:18;98841.31;;;5.93;100.00
29467;BME280;60968;37.490;-122.288;2023-01-28T15:10:39;98848.25;;;5.99;100.00
29467;BME280;60968;37.490;-122.288;2023-01-28T15:13:44;98845.69;;;6.07;100.00
29467;BME280;60968;37.490;-122.288;2023-01-28T15:16:48;98850.84;;;6.13;100.00
29467;BME280;60968;37.490;-122.288;2023-01-28T15:19:50;98861.22;;;6.17;100.00
29467;BME280;60968;37.490;-122.288;2023-01-28T15:22:52;98858.63;;;6.25;100.00
29467;BME280;60968;37.490;-122.288;2023-01-28T15:25:53;98861.25;;;6.34;100.00
29467;BME280;60968;37.490;-122.288;2023-01-28T15:28:55;98861.22;;;6.41;100.00
29467;BME280;60968;37.490;-122.288;2023-01-28T15:31:56;98860.38;;;6.46;100.00
29467;BME280;60968;37.490;-122.288;2023-01-28T15:35:05;98862.97;;;6.54;100.00
29467;BME280;60968;37.490;-122.288;2023-01-28T15:38:07;98869.88;;;6.61;100.00
29467;BME280;60968;37.490;-122.288;2023-01-28T15:41:10;98873.28;;;6.80;100.00
29467;BME280;60968;37.490;-122.288;2023-01-28T15:44:42;98876.69;;;7.06;100.00
29467;BME280;60968;37.490;-122.288;2023-01-28T15:47:43;98877.50;;;7.29;100.00
29467;BME280;60968;37.490;-122.288;2023-01-28T15:50:44;98878.31;;;7.50;100.00
29467;BME280;60968;37.490;-122.288;2023-01-28T15:53:48;98869.59;;;7.63;100.00
29467;BME280;60968;37.490;-122.288;2023-01-28T15:56:50;98866.06;;;7.80;99.95
29467;BME280;60968;37.490;-122.288;2023-01-28T15:59:51;98875.53;;;7.90;100.00
29467;BME280;60968;37.490;-122.288;2023-01-28T16:03:07;98871.22;;;7.90;100.00
29467;BME280;60968;37.490;-122.288;2023-01-28T16:06:15;98877.22;;;7.94;100.00
29467;BME280;60968;37.490;-122.288;2023-01-28T16:09:29;98881.53;;;7.98;100.00
29467;BME280;60968;37.490;-122.288;2023-01-28T16:12:33;98886.69;;;8.07;100.00
29467;BME280;60968;37.490;-122.288;2023-01-28T16:15:34;98882.28;;;8.17;100.00
29467;BME280;60968;37.490;-122.288;2023-01-28T16:18:48;98880.41;;;8.38;98.16
29467;BME280;60968;37.490;-122.288;2023-01-28T16:21:52;98883.78;;;8.55;98.29
29467;BME280;60968;37.490;-122.288;2023-01-28T16:24:53;98893.16;;;8.70;98.40
29467;BME280;60968;37.490;-122.288;2023-01-28T16:27:55;98893.94;;;8.83;98.30
29467;BME280;60968;37.490;-122.288;2023-01-28T16:30:57;98893.81;;;8.96;97.40
29467;BME280;60968;37.490;-122.288;2023-01-28T16:33:58;98898.88;;;9.09;97.51
29467;BME280;60968;37.490;-122.288;2023-01-28T16:36:59;98895.72;;;9.60;97.32
29467;BME280;60968;37.490;-122.288;2023-01-28T16:40:00;98897.22;;;12.66;82.01
29467;BME280;60968;37.490;-122.288;2023-01-28T16:43:01;98893.25;;;16.40;65.56
29467;BME280;60968;37.490;-122.288;2023-01-28T16:46:02;98900.66;;;18.34;60.04
29467;BME280;60968;37.490;-122.288;2023-01-28T16:49:03;98887.09;;;19.31;53.90
29467;BME280;60968;37.490;-122.288;2023-01-28T16:52:05;98894.69;;;20.20;51.76
29467;BME280;60968;37.490;-122.288;2023-01-28T16:55:13;98895.03;;;20.30;49.13
29467;BME280;60968;37.490;-122.288;2023-01-28T16:58:16;98890.41;;;20.34;46.09
29467;BME280;60968;37.490;-122.288;2023-01-28T17:01:18;98900.22;;;20.48;46.71
29467;BME280;60968;37.490;-122.288;2023-01-28T17:04:19;98898.47;;;20.63;46.32
29467;BME280;60968;37.490;-122.288;2023-01-28T17:11:00;98911.91;;;20.12;46.46
29467;BME280;60968;37.490;-122.288;2023-01-28T17:14:01;98905.75;;;19.79;47.04
29467;BME280;60968;37.490;-122.288;2023-01-28T17:17:01;98908.00;;;20.51;46.53
29467;BME280;60968;37.490;-122.288;2023-01-28T17:20:02;98913.28;;;20.03;46.53
29467;BME280;60968;37.490;-122.288;2023-01-28T17:23:03;98906.75;;;18.72;49.74
29467;BME280;60968;37.490;-122.288;2023-01-28T17:26:05;98909.84;;;19.85;46.74
29467;BME280;60968;37.490;-122.288;2023-01-28T17:29:07;98912.22;;;19.90;44.54
29467;BME280;60968;37.490;-122.288;2023-01-28T17:32:08;98913.63;;;20.13;46.17
29467;BME280;60968;37.490;-122.288;2023-01-28T17:35:09;98907.03;;;20.52;44.91
29467;BME280;60968;37.490;-122.288;2023-01-28T17:38:09;98918.34;;;17.74;51.47
29467;BME280;60968;37.490;-122.288;2023-01-28T17:41:11;98929.94;;;14.96;60.70
29467;BME280;60968;37.490;-122.288;2023-01-28T17:44:13;98937.28;;;13.37;69.93
29467;BME280;60968;37.490;-122.288;2023-01-28T17:47:14;98941.91;;;12.55;75.48
29467;BME280;60968;37.490;-122.288;2023-01-28T17:50:16;98939.41;;;12.11;77.91